Metar Cercanos

 

LEPA - Palma De Mallorc, Spain
Distance from station: ONO 38km
Actualización: 25/05/2018 20:00
Few Clouds
Few Clouds
 Viento del O
Viento: O 20 km/h
Temperatura: 21°C
Rocío: 19°C
Humedad: 88%
Barómetro: 1012 hPa
Clouds: Few Clouds
Visibility: 9 km
Cloud details: Few Clouds 610 m
2018/05/25 18:00 LEPA 251800Z 27011KT 240V300 9000 FEW020 21/19 Q1012 NOSIG
LEMH - Mahon/Menorca Is, Spain
Distance from station: ENE 105km
Actualización: 01/01/1970 01:00
NOT Current
unable to load LEMH data RC=404 Not Found
unable to load LEMH data RC=404 Not Found
 
 
LEIB - Ibiza/Es Codola, Spain
Distance from station: OSO 165km
Actualización: 25/05/2018 20:00
Muy nuboso
Muy nuboso
 Viento del SSO
Viento: SSO 11 km/h
Temperatura: 21°C
Rocío: 18°C
Humedad: 83%
Barómetro: 1012 hPa
Clouds: Muy nuboso
Visibility: 10 km
Cloud details: Few Clouds 213 m
Muy nuboso 549 m
2018/05/25 18:00 LEIB 251800Z 21006KT 170V240 9999 FEW007 BKN018 21/18 Q1012 NOSIG
LEBL - Barcelona Airpor, Spain
Distance from station: NNO 225km
Actualización: 25/05/2018 20:00
Despejado
Despejado
 Viento del E
Viento: E 31 km/h
Temperatura: 22°C
Rocío: 14°C
Humedad: 61%
Barómetro: 1013 hPa
Resumen: Despejado
Visibility: greater than 10 km
2018/05/25 18:00 LEBL 251800Z 08017KT CAVOK 22/14 Q1013 NOSIG
 
LEVC - Valencia (civ/Mi, Spain
Distance from station: NO 188km
Actualización: 25/05/2018 20:00
Few Clouds
Few Clouds
 Viento del E
Viento: E 20 km/h
Temperatura: 21°C
Rocío: 17°C
Humedad: 78%
Barómetro: 1011 hPa
Clouds: Few Clouds
Visibility: 10 km
Cloud details: Few Clouds 1219 m
2018/05/25 18:00 LEVC 251800Z 08011KT 040V110 9999 FEW040 21/17 Q1011 NOSIG
LEGE - Gerona/Costa Bra, Spain
Distance from station: N 276km
Actualización: 25/05/2018 20:00
Few Clouds
Few Clouds
 Viento del SSE
Viento: SSE 9 km/h
Temperatura: 21°C
Rocío: 9°C
Humedad: 46%
Barómetro: 1015 hPa
Clouds: Few Clouds
Visibility: 10 km
Cloud details: Few Clouds 1219 m
2018/05/25 18:00 LEGE 251800Z 15005KT 120V190 9999 FEW040 21/09 Q1015
 
LEAL - Alicante/El Alte, Spain
Distance from station: OSO 344km
Actualización: 25/05/2018 20:00
Few Clouds
Few Clouds
 Viento del E
Viento: E 19 km/h
Temperatura: 21°C
Rocío: 17°C
Humedad: 78%
Barómetro: 1011 hPa
Clouds: Few Clouds
Visibility: 10 km
Cloud details: Few Clouds 1219 m
2018/05/25 18:00 LEAL 251800Z 09010KT 9999 FEW040 21/17 Q1011 NOSIG
LEAM - Almeria Airport, Spain
Distance from station: SSO 56km
Actualización: 25/05/2018 20:00
Despejado
Despejado
 Viento del SO
Viento: SO 33 km/h
Temperatura: 22°C
Rocío: 14°C
Humedad: 61%
Barómetro: 1010 hPa
Resumen: Despejado
Visibility: greater than 10 km
2018/05/25 18:00 LEAM 251800Z 23018KT CAVOK 22/14 Q1010
 
LEZG - Zaragoza (mil/Ci, Spain
Distance from station: NO 431km
Actualización: 25/05/2018 20:00
Few Clouds
Few Clouds
 Viento del ESE
Viento: ESE 30 km/h
Temperatura: 24°C
Rocío: 13°C
Humedad: 50%
Barómetro: 1010 hPa
Clouds: Few Clouds
Visibility: 10 km
Cloud details: Few Clouds 1524 m
2018/05/25 18:00 LEZG 251800Z 12016KT 100V160 9999 FEW050 24/13 Q1010
LEMD - Madrid/Barajas, Spain
Distance from station: ONO 234km
Actualización: 25/05/2018 20:00
Parcialmente nuboso
Parcialmente nuboso
 Viento del ONO
Viento: ONO 24 km/h
Temperatura: 17°C
Rocío: 11°C
Humedad: 68%
Barómetro: 1012 hPa
Clouds: Parcialmente nuboso
Visibility: 10 km
Cloud details: Few Clouds 1219 m
Parcialmente nuboso 1829 m
2018/05/25 18:00 LEMD 251800Z 29013KT 9999 FEW040TCU SCT060 17/11 Q1012 NOSIG
 
LEGR - Granada Airport, Spain
Distance from station: OSO 62km
Actualización: 25/05/2018 20:00
Parcialmente nuboso
Parcialmente nuboso
 Viento del O
Viento: O 17 km/h
Temperatura: 21°C
Rocío: 7°C
Humedad: 40%
Barómetro: 1013 hPa
Clouds: Parcialmente nuboso
Visibility: 10 km
Cloud details: Few Clouds 1372 m
Parcialmente nuboso 2134 m
2018/05/25 18:00 LEGR 251800Z 28009KT 250V320 9999 FEW045 SCT070 21/07 Q1013
LEMG - Malaga (civ/Mil), Spain
Distance from station: OSO 227km
Actualización: 25/05/2018 20:00
Few Clouds
Few Clouds
 Viento del SO
Viento: SO 19 km/h
Temperatura: 24°C
Rocío: 8°C
Humedad: 36%
Barómetro: 1012 hPa
Clouds: Few Clouds
Visibility: 10 km
Cloud details: Few Clouds 1219 m
2018/05/25 18:00 LEMG 251800Z 22010KT 160V270 9999 FEW040 24/08 Q1012 NOSIG
 
LEZL - Sevilla (civ/Mil, Spain
Distance from station: S 318km
Actualización: 25/05/2018 20:00
Few Clouds
Few Clouds
 Viento del SO
Viento: SO 22 km/h
Temperatura: 21°C
Rocío: 10°C
Humedad: 50%
Barómetro: 1012 hPa
Clouds: Few Clouds
Visibility: 10 km
Cloud details: Few Clouds 1372 m
2018/05/25 18:00 LEZL 251800Z 23012KT 200V260 9999 FEW045 21/10 Q1012 NOSIG
LEVT - Vitoria, Spain
Distance from station: NO 226km
Actualización: 25/05/2018 20:00
Muy nuboso
Muy nuboso
 Viento del NNE
Viento: NNE 20 km/h
Temperatura: 17°C
Rocío: 13°C
Humedad: 77%
Barómetro: 1013 hPa
Clouds: Muy nuboso
Visibility: 10 km
Cloud details: Few Clouds 457 m
Parcialmente nuboso 914 m
Muy nuboso 1829 m
2018/05/25 18:00 LEVT 251800Z 02011KT 9999 FEW015 SCT030 BKN060 17/13 Q1013
 
LEBB - Bilbao/Sondica, Spain
Distance from station: NNO 235km
Actualización: 25/05/2018 20:00
Muy nuboso
Muy nuboso
 Viento del ONO
Viento: ONO 9 km/h
Temperatura: 18°C
Rocío: 17°C
Humedad: 94%
Barómetro: 1013 hPa
Clouds: Muy nuboso
Visibility: 10 km
Cloud details: Parcialmente nuboso 610 m
Muy nuboso 762 m
2018/05/25 18:00 LEBB 251800Z 30005KT 9999 SCT020 BKN025 18/17 Q1013 TEMPO 4000 RA BKN010
LESO - San Sebastian/Fu, Spain
Distance from station: N 231km
Actualización: 25/05/2018 20:00
Parcialmente nuboso
Parcialmente nuboso
 Viento del NNE
Viento: NNE 6 km/h
Temperatura: 20°C
Rocío: 17°C
Humedad: 83%
Barómetro: 1012 hPa
Clouds: Parcialmente nuboso
Visibility: 10 km
Cloud details: Few Clouds 427 m
Parcialmente nuboso 1250 m
2018/05/25 18:00 LESO 251800Z 03003KT 340V060 9999 FEW014 SCT041 20/17 Q1012
 
LEVD - Valladolid(Mil/C, Spain
Distance from station: ONO 239km
Actualización: 25/05/2018 20:00
Nearby thunderstorm, Parcialmente nuboso
Nearby thunderstorm, Parcialmente nuboso
 Viento del ENE
Viento: ENE 11 km/h
Temperatura: 13°C
Rocío: 11°C
Humedad: 88%
Barómetro: 1013 hPa
Resumen: Nearby Thunderstorm
Clouds: Parcialmente nuboso
Visibility: 10 km
Cloud details: Few Clouds 335 m
Parcialmente nuboso 1981 m
2018/05/25 18:00 LEVD 251800Z 07006KT 9999 VCTS FEW011 SCT065CB 13/11 Q1013
LESA - Salamanca (civ/M, Spain
Distance from station: ONO 349km
Actualización: 25/05/2018 20:00
Few Clouds
Few Clouds
 Viento del N
Viento: N 6 km/h
Temperatura: 14°C
Rocío: 9°C
Humedad: 72%
Barómetro: 1013 hPa
Clouds: Few Clouds
Visibility: 10 km
Cloud details: Few Clouds 1433 m
2018/05/25 18:00 LESA 251800Z 35003KT 320V020 9999 FEW047 14/09 Q1013
 
LEXJ - Santander/Paraya, Spain
Distance from station: NNO 247km
Actualización: 25/05/2018 20:00
Muy nuboso
Muy nuboso
 Viento del NE
Viento: NE 7 km/h
Temperatura: 18°C
Rocío: 18°C
Humedad: 100%
Barómetro: 1013 hPa
Clouds: Muy nuboso
Visibility: 10 km
Cloud details: Parcialmente nuboso 274 m
Muy nuboso 488 m
2018/05/25 18:00 LEXJ 251800Z 04004KT 360V090 9999 SCT009 BKN016 18/18 Q1013
LEAS - Asturias/Aviles, Spain
Distance from station: NO 214km
Actualización: 25/05/2018 20:00
Mist, Lluvia débil, Cubierto
Mist, Lluvia débil, Cubierto
 Viento del NE
Viento: NE 6 km/h
Temperatura: 15°C
Rocío: 15°C
Humedad: 100%
Barómetro: 1014 hPa
Resumen: Mist, Lluvia débil
Clouds: Cubierto
Visibility: 1 km
Cloud details: Cubierto 30 m
2018/05/25 18:00 LEAS 251800Z 04003KT 300V110 1000 R29/0450D R11/0900U BR -RA VV001 15/15 Q1014 NOSIG
 
LECO - La Coruna/Alvedr, Spain
Distance from station: ONO 222km
Actualización: 25/05/2018 20:00
Muy nuboso
Muy nuboso
 Viento del N
Viento: N 11 km/h
Temperatura: 14°C
Rocío: 13°C
Humedad: 94%
Barómetro: 1015 hPa
Clouds: Muy nuboso
Visibility: 6 km
Cloud details: Parcialmente nuboso 671 m
Muy nuboso 975 m
2018/05/25 18:00 LECO 251800Z 36006KT 320V060 6000 SCT022 BKN032 14/13 Q1015 NOSIG
LEVX - Vigo/Peinador, Spain
Distance from station: O 214km
Actualización: 25/05/2018 20:00
Light drizzle, Muy nuboso
Light drizzle, Muy nuboso
 Viento del varies
Viento: varies 4 km/h
Temperatura: 15°C
Rocío: 14°C
Humedad: 94%
Barómetro: 1013 hPa
Resumen: Light Drizzle
Clouds: Muy nuboso
Visibility: 7 km
Cloud details: Few Clouds 122 m
Muy nuboso 244 m
2018/05/25 18:00 LEVX 251800Z VRB02KT 7000 -DZ FEW004 BKN008 15/14 Q1013 TEMPO 3000 RA